sensor_id;sensor_type;location;lat;lon;timestamp;pressure;altitude;pressure_sealevel;temperature;humidity
77867;BME280;67271;59.120;37.970;2023-04-01T00:04:50;98941.41;;;-2.93;74.93
77867;BME280;67271;59.120;37.970;2023-04-01T00:07:16;98937.25;;;-2.95;74.85
77867;BME280;67271;59.120;37.970;2023-04-01T00:09:42;98926.53;;;-2.94;74.56
77867;BME280;67271;59.120;37.970;2023-04-01T00:12:07;98926.38;;;-2.92;74.72
77867;BME280;67271;59.120;37.970;2023-04-01T00:14:33;98929.19;;;-2.94;74.91
77867;BME280;67271;59.120;37.970;2023-04-01T00:17:00;98931.84;;;-2.94;74.71
77867;BME280;67271;59.120;37.970;2023-04-01T00:19:26;98933.47;;;-2.93;74.65
77867;BME280;67271;59.120;37.970;2023-04-01T00:21:51;98936.13;;;-2.93;74.39
77867;BME280;67271;59.120;37.970;2023-04-01T00:24:17;98941.28;;;-2.91;74.78
77867;BME280;67271;59.120;37.970;2023-04-01T00:26:43;98929.19;;;-2.94;74.74
77867;BME280;67271;59.120;37.970;2023-04-01T00:29:09;98932.09;;;-2.97;74.83
77867;BME280;67271;59.120;37.970;2023-04-01T00:31:35;98928.47;;;-2.96;74.82
77867;BME280;67271;59.120;37.970;2023-04-01T00:34:01;98924.16;;;-2.97;75.08
77867;BME280;67271;59.120;37.970;2023-04-01T00:36:27;98927.06;;;-3.00;74.97
77867;BME280;67271;59.120;37.970;2023-04-01T00:38:53;98922.09;;;-3.03;75.04
77867;BME280;67271;59.120;37.970;2023-04-01T00:41:20;98918.47;;;-3.02;75.57
77867;BME280;67271;59.120;37.970;2023-04-01T00:43:49;98919.44;;;-3.03;75.64
77867;BME280;67271;59.120;37.970;2023-04-01T00:46:15;98919.72;;;-3.06;75.34
77867;BME280;67271;59.120;37.970;2023-04-01T00:48:53;98917.38;;;-3.09;75.67
77867;BME280;67271;59.120;37.970;2023-04-01T00:51:23;98913.03;;;-3.10;75.63
77867;BME280;67271;59.120;37.970;2023-04-01T00:53:53;98909.00;;;-3.14;75.38
77867;BME280;67271;59.120;37.970;2023-04-01T00:56:26;98916.66;;;-3.11;75.54
77867;BME280;67271;59.120;37.970;2023-04-01T00:59:00;98912.22;;;-3.10;75.21
77867;BME280;67271;59.120;37.970;2023-04-01T01:01:28;98906.06;;;-3.11;75.06
77867;BME280;67271;59.120;37.970;2023-04-01T01:03:55;98918.88;;;-3.06;75.28
77867;BME280;67271;59.120;37.970;2023-04-01T01:06:39;98908.28;;;-3.06;75.10
77867;BME280;67271;59.120;37.970;2023-04-01T01:12:19;98914.28;;;-3.04;74.81
77867;BME280;67271;59.120;37.970;2023-04-01T01:14:52;98921.94;;;-3.01;75.36
77867;BME280;67271;59.120;37.970;2023-04-01T01:31:31;98926.41;;;-3.02;75.27
77867;BME280;67271;59.120;37.970;2023-04-01T01:36:28;98932.22;;;-3.08;75.52
77867;BME280;67271;59.120;37.970;2023-04-01T01:38:58;98921.94;;;-3.11;75.69
77867;BME280;67271;59.120;37.970;2023-04-01T01:41:25;98923.34;;;-3.17;75.42
77867;BME280;67271;59.120;37.970;2023-04-01T01:43:53;98916.38;;;-3.18;75.75
77867;BME280;67271;59.120;37.970;2023-04-01T01:46:24;98918.47;;;-3.21;75.87
77867;BME280;67271;59.120;37.970;2023-04-01T01:48:52;98917.34;;;-3.28;76.10
77867;BME280;67271;59.120;37.970;2023-04-01T01:51:20;98916.94;;;-3.33;76.05
77867;BME280;67271;59.120;37.970;2023-04-01T01:53:46;98921.81;;;-3.38;76.29
77867;BME280;67271;59.120;37.970;2023-04-01T01:56:14;98916.41;;;-3.46;76.28
77867;BME280;67271;59.120;37.970;2023-04-01T01:58:46;98923.63;;;-3.48;76.17
77867;BME280;67271;59.120;37.970;2023-04-01T02:01:19;98918.59;;;-3.52;76.57
77867;BME280;67271;59.120;37.970;2023-04-01T02:03:46;98914.44;;;-3.54;76.48
77867;BME280;67271;59.120;37.970;2023-04-01T02:06:17;98912.19;;;-3.59;76.34
77867;BME280;67271;59.120;37.970;2023-04-01T02:08:51;98918.31;;;-3.58;76.50
77867;BME280;67271;59.120;37.970;2023-04-01T02:11:23;98914.13;;;-3.61;77.03
77867;BME280;67271;59.120;37.970;2023-04-01T02:14:11;98914.69;;;-3.67;76.50
77867;BME280;67271;59.120;37.970;2023-04-01T02:17:00;98916.50;;;-3.77;76.79
77867;BME280;67271;59.120;37.970;2023-04-01T02:19:29;98919.53;;;-3.81;76.94
77867;BME280;67271;59.120;37.970;2023-04-01T02:22:01;98916.59;;;-3.88;76.64
77867;BME280;67271;59.120;37.970;2023-04-01T02:24:30;98913.25;;;-3.90;77.17
77867;BME280;67271;59.120;37.970;2023-04-01T02:26:57;98911.59;;;-3.91;76.94
77867;BME280;67271;59.120;37.970;2023-04-01T02:29:24;98917.97;;;-3.94;76.92
77867;BME280;67271;59.120;37.970;2023-04-01T02:31:53;98918.25;;;-3.97;77.01
77867;BME280;67271;59.120;37.970;2023-04-01T02:34:21;98911.44;;;-3.99;77.43
77867;BME280;67271;59.120;37.970;2023-04-01T02:36:49;98911.69;;;-4.02;77.15
77867;BME280;67271;59.120;37.970;2023-04-01T02:39:16;98914.47;;;-4.04;77.65
77867;BME280;67271;59.120;37.970;2023-04-01T02:41:43;98912.94;;;-4.06;77.73
77867;BME280;67271;59.120;37.970;2023-04-01T02:44:11;98916.41;;;-4.06;77.59
77867;BME280;67271;59.120;37.970;2023-04-01T02:46:38;98908.75;;;-4.09;77.82
77867;BME280;67271;59.120;37.970;2023-04-01T02:49:04;98917.66;;;-4.10;77.78
77867;BME280;67271;59.120;37.970;2023-04-01T02:51:31;98929.91;;;-4.09;78.15
77867;BME280;67271;59.120;37.970;2023-04-01T02:53:57;98928.09;;;-4.08;77.81
77867;BME280;67271;59.120;37.970;2023-04-01T02:56:23;98921.84;;;-4.07;78.12
77867;BME280;67271;59.120;37.970;2023-04-01T02:58:48;98926.16;;;-4.06;78.21
77867;BME280;67271;59.120;37.970;2023-04-01T03:01:14;98933.09;;;-4.05;77.95
77867;BME280;67271;59.120;37.970;2023-04-01T03:03:40;98927.13;;;-4.07;78.14
77867;BME280;67271;59.120;37.970;2023-04-01T03:06:08;98918.78;;;-4.03;78.06
77867;BME280;67271;59.120;37.970;2023-04-01T03:08:35;98922.13;;;-4.01;77.82
77867;BME280;67271;59.120;37.970;2023-04-01T03:11:01;98927.00;;;-3.96;78.01
77867;BME280;67271;59.120;37.970;2023-04-01T03:13:28;98920.50;;;-3.92;77.94
77867;BME280;67271;59.120;37.970;2023-04-01T03:15:54;98922.72;;;-3.87;77.75
77867;BME280;67271;59.120;37.970;2023-04-01T03:18:20;98910.75;;;-3.82;77.64
77867;BME280;67271;59.120;37.970;2023-04-01T03:20:46;98909.53;;;-3.78;77.74
77867;BME280;67271;59.120;37.970;2023-04-01T03:23:12;98908.00;;;-3.71;77.22
77867;BME280;67271;59.120;37.970;2023-04-01T03:25:38;98916.34;;;-3.66;77.63
77867;BME280;67271;59.120;37.970;2023-04-01T03:28:04;98914.84;;;-3.59;76.84
77867;BME280;67271;59.120;37.970;2023-04-01T03:30:30;98911.38;;;-3.49;76.64
77867;BME280;67271;59.120;37.970;2023-04-01T03:32:59;98906.38;;;-3.33;76.46
77867;BME280;67271;59.120;37.970;2023-04-01T03:35:26;98911.38;;;-3.21;75.87
77867;BME280;67271;59.120;37.970;2023-04-01T03:37:52;98911.38;;;-3.11;75.99
77867;BME280;67271;59.120;37.970;2023-04-01T03:40:19;98909.81;;;-2.94;75.56
77867;BME280;67271;59.120;37.970;2023-04-01T03:42:45;98912.44;;;-2.85;75.49
77867;BME280;67271;59.120;37.970;2023-04-01T03:45:11;98913.25;;;-2.75;75.25
77867;BME280;67271;59.120;37.970;2023-04-01T03:47:40;98912.25;;;-2.64;74.82
77867;BME280;67271;59.120;37.970;2023-04-01T03:50:07;98911.94;;;-2.51;74.62
77867;BME280;67271;59.120;37.970;2023-04-01T03:52:33;98914.25;;;-2.39;74.36
77867;BME280;67271;59.120;37.970;2023-04-01T03:55:00;98913.38;;;-2.29;74.28
77867;BME280;67271;59.120;37.970;2023-04-01T03:57:27;98910.00;;;-2.22;74.18
77867;BME280;67271;59.120;37.970;2023-04-01T03:59:56;98912.03;;;-2.06;73.89
77867;BME280;67271;59.120;37.970;2023-04-01T04:02:22;98914.94;;;-2.00;73.91
77867;BME280;67271;59.120;37.970;2023-04-01T04:04:47;98912.50;;;-1.93;73.53
77867;BME280;67271;59.120;37.970;2023-04-01T04:07:13;98914.16;;;-1.82;73.23
77867;BME280;67271;59.120;37.970;2023-04-01T04:10:08;98918.69;;;-1.75;73.36
77867;BME280;67271;59.120;37.970;2023-04-01T04:12:34;98922.28;;;-1.66;73.09
77867;BME280;67271;59.120;37.970;2023-04-01T04:15:00;98921.34;;;-1.57;72.98
77867;BME280;67271;59.120;37.970;2023-04-01T04:17:26;98924.25;;;-1.33;72.63
77867;BME280;67271;59.120;37.970;2023-04-01T04:19:52;98925.09;;;-0.45;70.32
77867;BME280;67271;59.120;37.970;2023-04-01T04:22:18;98914.75;;;0.62;67.71
77867;BME280;67271;59.120;37.970;2023-04-01T04:24:44;98906.03;;;1.73;65.41
77867;BME280;67271;59.120;37.970;2023-04-01T04:27:12;98911.69;;;2.56;63.14
77867;BME280;67271;59.120;37.970;2023-04-01T04:29:47;98915.38;;;3.01;62.59
77867;BME280;67271;59.120;37.970;2023-04-01T04:32:13;98910.47;;;3.13;62.56
77867;BME280;67271;59.120;37.970;2023-04-01T04:34:38;98909.66;;;3.27;62.36
77867;BME280;67271;59.120;37.970;2023-04-01T04:37:04;98917.00;;;3.47;62.91
77867;BME280;67271;59.120;37.970;2023-04-01T04:39:34;98922.88;;;3.95;61.50
77867;BME280;67271;59.120;37.970;2023-04-01T04:42:00;98919.44;;;4.16;60.95
77867;BME280;67271;59.120;37.970;2023-04-01T04:44:26;98927.63;;;4.44;60.76
77867;BME280;67271;59.120;37.970;2023-04-01T04:46:51;98927.81;;;4.57;60.54
77867;BME280;67271;59.120;37.970;2023-04-01T04:49:18;98928.81;;;4.56;60.57
77867;BME280;67271;59.120;37.970;2023-04-01T04:51:44;98930.38;;;4.65;60.36
77867;BME280;67271;59.120;37.970;2023-04-01T04:54:12;98927.78;;;4.93;59.87
77867;BME280;67271;59.120;37.970;2023-04-01T04:56:54;98929.16;;;5.53;58.14
77867;BME280;67271;59.120;37.970;2023-04-01T04:59:21;98932.75;;;6.22;57.04
77867;BME280;67271;59.120;37.970;2023-04-01T05:02:10;98919.94;;;6.72;55.53
77867;BME280;67271;59.120;37.970;2023-04-01T05:04:36;98920.22;;;6.83;55.38
77867;BME280;67271;59.120;37.970;2023-04-01T05:07:03;98934.03;;;6.74;55.47
77867;BME280;67271;59.120;37.970;2023-04-01T05:09:29;98925.41;;;6.37;56.19
77867;BME280;67271;59.120;37.970;2023-04-01T05:11:55;98941.97;;;6.06;56.69
77867;BME280;67271;59.120;37.970;2023-04-01T05:14:22;98936.28;;;6.22;56.18
77867;BME280;67271;59.120;37.970;2023-04-01T05:16:56;98950.28;;;6.18;56.19
77867;BME280;67271;59.120;37.970;2023-04-01T05:19:21;98944.31;;;6.16;55.98
77867;BME280;67271;59.120;37.970;2023-04-01T05:21:47;98944.38;;;6.29;55.96
77867;BME280;67271;59.120;37.970;2023-04-01T05:24:14;98937.88;;;6.17;55.43
77867;BME280;67271;59.120;37.970;2023-04-01T05:26:41;98943.97;;;5.98;55.64
77867;BME280;67271;59.120;37.970;2023-04-01T05:29:06;98943.38;;;5.74;55.77
77867;BME280;67271;59.120;37.970;2023-04-01T05:31:32;98941.66;;;5.95;55.50
77867;BME280;67271;59.120;37.970;2023-04-01T05:33:59;98938.09;;;6.15;54.00
77867;BME280;67271;59.120;37.970;2023-04-01T05:36:25;98931.38;;;6.39;53.61
77867;BME280;67271;59.120;37.970;2023-04-01T05:38:55;98937.94;;;6.78;52.41
77867;BME280;67271;59.120;37.970;2023-04-01T05:41:22;98933.94;;;7.21;51.58
77867;BME280;67271;59.120;37.970;2023-04-01T05:43:47;98932.09;;;7.55;50.99
77867;BME280;67271;59.120;37.970;2023-04-01T05:46:32;98935.41;;;7.70;50.62
77867;BME280;67271;59.120;37.970;2023-04-01T05:49:06;98929.38;;;8.01;50.03
77867;BME280;67271;59.120;37.970;2023-04-01T05:51:32;98936.19;;;8.16;50.02
77867;BME280;67271;59.120;37.970;2023-04-01T05:53:58;98938.66;;;8.25;49.98
77867;BME280;67271;59.120;37.970;2023-04-01T05:56:24;98929.09;;;8.42;48.90
77867;BME280;67271;59.120;37.970;2023-04-01T05:58:52;98940.13;;;8.34;49.19
77867;BME280;67271;59.120;37.970;2023-04-01T06:01:20;98926.56;;;8.53;49.36
77867;BME280;67271;59.120;37.970;2023-04-01T06:03:46;98931.44;;;8.76;48.97
77867;BME280;67271;59.120;37.970;2023-04-01T06:06:22;98930.16;;;8.85;48.48
77867;BME280;67271;59.120;37.970;2023-04-01T06:08:49;98935.13;;;8.82;48.31
77867;BME280;67271;59.120;37.970;2023-04-01T06:20:12;98935.13;;;9.20;47.61
77867;BME280;67271;59.120;37.970;2023-04-01T06:26:17;98931.19;;;8.84;48.19
77867;BME280;67271;59.120;37.970;2023-04-01T06:37:40;98933.31;;;7.52;48.87
77867;BME280;67271;59.120;37.970;2023-04-01T06:40:44;98935.22;;;7.58;48.67
77867;BME280;67271;59.120;37.970;2023-04-01T06:50:07;98929.09;;;8.29;46.43
77867;BME280;67271;59.120;37.970;2023-04-01T06:56:11;98923.09;;;8.84;45.80
77867;BME280;67271;59.120;37.970;2023-04-01T06:58:58;98919.41;;;9.17;45.11
77867;BME280;67271;59.120;37.970;2023-04-01T07:01:49;98916.16;;;9.58;44.54
77867;BME280;67271;59.120;37.970;2023-04-01T07:04:30;98919.53;;;9.78;44.68
77867;BME280;67271;59.120;37.970;2023-04-01T07:09:57;98934.13;;;9.70;44.48
77867;BME280;67271;59.120;37.970;2023-04-01T07:15:28;98930.88;;;9.37;44.61
77867;BME280;67271;59.120;37.970;2023-04-01T07:17:59;98923.09;;;9.47;44.31
77867;BME280;67271;59.120;37.970;2023-04-01T07:20:36;98922.09;;;9.10;44.39
77867;BME280;67271;59.120;37.970;2023-04-01T07:23:15;98922.50;;;9.14;44.54
77867;BME280;67271;59.120;37.970;2023-04-01T07:26:11;98924.31;;;8.88;44.69
77867;BME280;67271;59.120;37.970;2023-04-01T07:28:58;98926.66;;;9.16;44.03
77867;BME280;67271;59.120;37.970;2023-04-01T07:34:10;98929.25;;;9.29;42.87
77867;BME280;67271;59.120;37.970;2023-04-01T07:36:46;98935.56;;;8.85;43.38
77867;BME280;67271;59.120;37.970;2023-04-01T07:42:37;98935.44;;;8.61;43.46
77867;BME280;67271;59.120;37.970;2023-04-01T07:48:16;98934.56;;;9.11;42.34
77867;BME280;67271;59.120;37.970;2023-04-01T07:51:03;98937.31;;;9.05;41.88
77867;BME280;67271;59.120;37.970;2023-04-01T07:53:49;98942.19;;;9.21;42.19
77867;BME280;67271;59.120;37.970;2023-04-01T08:07:25;98955.09;;;7.51;41.64
77867;BME280;67271;59.120;37.970;2023-04-01T08:11:01;98955.19;;;6.90;41.04
77867;BME280;67271;59.120;37.970;2023-04-01T08:17:03;98958.63;;;6.30;41.02
77867;BME280;67271;59.120;37.970;2023-04-01T08:19:51;98958.16;;;6.19;40.77
77867;BME280;67271;59.120;37.970;2023-04-01T08:22:27;98953.25;;;5.95;40.20
77867;BME280;67271;59.120;37.970;2023-04-01T08:25:01;98958.41;;;5.97;40.34
77867;BME280;67271;59.120;37.970;2023-04-01T08:27:44;98951.00;;;5.99;40.38
77867;BME280;67271;59.120;37.970;2023-04-01T08:30:20;98955.41;;;6.06;39.79
77867;BME280;67271;59.120;37.970;2023-04-01T08:33:15;98960.63;;;6.14;39.47
77867;BME280;67271;59.120;37.970;2023-04-01T08:35:52;98959.72;;;6.01;39.69
77867;BME280;67271;59.120;37.970;2023-04-01T08:38:28;98965.78;;;6.16;39.26
77867;BME280;67271;59.120;37.970;2023-04-01T08:41:06;98961.91;;;6.25;39.03
77867;BME280;67271;59.120;37.970;2023-04-01T08:53:41;98964.69;;;6.38;38.94
77867;BME280;67271;59.120;37.970;2023-04-01T08:56:53;98965.56;;;6.17;39.28
77867;BME280;67271;59.120;37.970;2023-04-01T08:59:50;98962.72;;;6.26;38.94
77867;BME280;67271;59.120;37.970;2023-04-01T09:03:34;98968.19;;;6.39;38.56
77867;BME280;67271;59.120;37.970;2023-04-01T09:05:37;98962.75;;;6.67;38.20
77867;BME280;67271;59.120;37.970;2023-04-01T09:10:53;98965.81;;;6.64;38.74
77867;BME280;67271;59.120;37.970;2023-04-01T09:14:11;98969.50;;;6.56;39.01
77867;BME280;67271;59.120;37.970;2023-04-01T09:30:58;98971.84;;;6.66;39.94
77867;BME280;67271;59.120;37.970;2023-04-01T09:45:42;98972.31;;;6.76;39.74
77867;BME280;67271;59.120;37.970;2023-04-01T09:50:46;98978.97;;;6.93;39.70
77867;BME280;67271;59.120;37.970;2023-04-01T10:27:12;98987.00;;;7.80;37.47
77867;BME280;67271;59.120;37.970;2023-04-01T10:33:44;98986.34;;;7.91;37.84
77867;BME280;67271;59.120;37.970;2023-04-01T10:44:40;99000.66;;;7.72;37.32
77867;BME280;67271;59.120;37.970;2023-04-01T10:47:23;98999.00;;;7.51;37.72
77867;BME280;67271;59.120;37.970;2023-04-01T11:01:35;98991.53;;;7.66;37.44
77867;BME280;67271;59.120;37.970;2023-04-01T11:21:44;99011.22;;;7.93;36.97
77867;BME280;67271;59.120;37.970;2023-04-01T11:27:42;99006.66;;;8.27;36.97
77867;BME280;67271;59.120;37.970;2023-04-01T11:30:19;99012.03;;;8.40;36.81
77867;BME280;67271;59.120;37.970;2023-04-01T11:33:04;99007.44;;;8.53;36.45
77867;BME280;67271;59.120;37.970;2023-04-01T11:44:46;99024.88;;;8.38;36.64
77867;BME280;67271;59.120;37.970;2023-04-01T12:01:08;99032.59;;;8.34;36.55
77867;BME280;67271;59.120;37.970;2023-04-01T12:09:56;99042.88;;;8.70;36.50
77867;BME280;67271;59.120;37.970;2023-04-01T12:15:23;99048.06;;;8.65;36.23
77867;BME280;67271;59.120;37.970;2023-04-01T12:18:04;99054.06;;;8.67;36.83
77867;BME280;67271;59.120;37.970;2023-04-01T12:20:50;99055.16;;;8.53;36.66
77867;BME280;67271;59.120;37.970;2023-04-01T12:23:32;99054.13;;;8.47;36.70
77867;BME280;67271;59.120;37.970;2023-04-01T12:57:45;99085.00;;;8.19;37.11
77867;BME280;67271;59.120;37.970;2023-04-01T13:25:03;99098.69;;;8.17;37.05
77867;BME280;67271;59.120;37.970;2023-04-01T13:27:36;99101.59;;;8.15;37.06
77867;BME280;67271;59.120;37.970;2023-04-01T13:30:28;99097.63;;;8.05;37.27
77867;BME280;67271;59.120;37.970;2023-04-01T14:13:08;99131.50;;;7.60;37.89
77867;BME280;67271;59.120;37.970;2023-04-01T14:16:12;99143.28;;;7.52;37.77
77867;BME280;67271;59.120;37.970;2023-04-01T14:29:28;99140.22;;;7.14;38.47
77867;BME280;67271;59.120;37.970;2023-04-01T14:34:36;99148.84;;;6.96;38.89
77867;BME280;67271;59.120;37.970;2023-04-01T14:47:59;99161.59;;;6.88;39.11
77867;BME280;67271;59.120;37.970;2023-04-01T14:50:46;99168.41;;;6.84;38.85
77867;BME280;67271;59.120;37.970;2023-04-01T14:55:55;99174.97;;;6.75;38.42
77867;BME280;67271;59.120;37.970;2023-04-01T14:58:23;99170.38;;;6.69;38.60
77867;BME280;67271;59.120;37.970;2023-04-01T15:07:00;99177.75;;;6.60;39.16
77867;BME280;67271;59.120;37.970;2023-04-01T15:09:53;99186.19;;;6.57;39.67
77867;BME280;67271;59.120;37.970;2023-04-01T15:12:37;99192.34;;;6.51;39.49
77867;BME280;67271;59.120;37.970;2023-04-01T15:17:43;99202.38;;;6.42;39.55
77867;BME280;67271;59.120;37.970;2023-04-01T15:20:33;99204.97;;;6.29;40.62
77867;BME280;67271;59.120;37.970;2023-04-01T15:23:34;99217.31;;;5.88;42.16
77867;BME280;67271;59.120;37.970;2023-04-01T15:26:20;99226.25;;;5.44;43.33
77867;BME280;67271;59.120;37.970;2023-04-01T15:34:27;99247.38;;;4.65;46.19
77867;BME280;67271;59.120;37.970;2023-04-01T15:40:11;99255.53;;;4.26;48.00
77867;BME280;67271;59.120;37.970;2023-04-01T15:57:14;99284.09;;;3.25;52.98
77867;BME280;67271;59.120;37.970;2023-04-01T16:17:11;99322.59;;;2.84;56.22
77867;BME280;67271;59.120;37.970;2023-04-01T16:20:03;99325.28;;;2.84;56.57
77867;BME280;67271;59.120;37.970;2023-04-01T16:22:58;99327.94;;;2.84;56.60
77867;BME280;67271;59.120;37.970;2023-04-01T16:25:40;99334.97;;;2.85;56.68
77867;BME280;67271;59.120;37.970;2023-04-01T16:28:32;99346.63;;;2.84;57.32
77867;BME280;67271;59.120;37.970;2023-04-01T16:31:37;99344.63;;;2.78;57.30
77867;BME280;67271;59.120;37.970;2023-04-01T16:34:30;99345.28;;;2.71;58.07
77867;BME280;67271;59.120;37.970;2023-04-01T16:37:16;99342.28;;;2.66;58.04
77867;BME280;67271;59.120;37.970;2023-04-01T16:42:26;99352.63;;;2.61;58.96
77867;BME280;67271;59.120;37.970;2023-04-01T16:45:06;99355.78;;;2.57;59.33
77867;BME280;67271;59.120;37.970;2023-04-01T16:47:47;99361.94;;;2.49;59.82
77867;BME280;67271;59.120;37.970;2023-04-01T16:50:28;99361.94;;;2.49;60.05
77867;BME280;67271;59.120;37.970;2023-04-01T16:53:02;99359.63;;;2.46;60.60
77867;BME280;67271;59.120;37.970;2023-04-01T16:55:45;99362.97;;;2.40;60.62
77867;BME280;67271;59.120;37.970;2023-04-01T16:58:35;99358.25;;;2.34;61.20
77867;BME280;67271;59.120;37.970;2023-04-01T17:01:17;99356.09;;;2.29;61.66
77867;BME280;67271;59.120;37.970;2023-04-01T17:03:51;99361.91;;;2.25;61.46
77867;BME280;67271;59.120;37.970;2023-04-01T17:14:45;99384.00;;;2.01;62.89
77867;BME280;67271;59.120;37.970;2023-04-01T17:22:39;99385.28;;;1.89;63.56
77867;BME280;67271;59.120;37.970;2023-04-01T17:25:25;99396.13;;;1.87;63.84
77867;BME280;67271;59.120;37.970;2023-04-01T17:28:34;99399.09;;;1.84;63.81
77867;BME280;67271;59.120;37.970;2023-04-01T17:34:40;99410.28;;;1.80;64.13
77867;BME280;67271;59.120;37.970;2023-04-01T17:40:32;99414.06;;;1.77;64.36
77867;BME280;67271;59.120;37.970;2023-04-01T17:45:42;99411.72;;;1.74;64.96
77867;BME280;67271;59.120;37.970;2023-04-01T17:51:37;99415.72;;;1.70;65.27
77867;BME280;67271;59.120;37.970;2023-04-01T17:57:04;99419.22;;;1.71;65.44
77867;BME280;67271;59.120;37.970;2023-04-01T17:59:39;99415.84;;;1.69;65.46
77867;BME280;67271;59.120;37.970;2023-04-01T18:07:44;99420.72;;;1.73;65.72
77867;BME280;67271;59.120;37.970;2023-04-01T18:10:28;99413.72;;;1.72;65.91
77867;BME280;67271;59.120;37.970;2023-04-01T18:15:43;99419.50;;;1.68;66.52
77867;BME280;67271;59.120;37.970;2023-04-01T18:26:34;99422.03;;;1.69;66.69
77867;BME280;67271;59.120;37.970;2023-04-01T18:31:51;99429.34;;;1.67;66.93
77867;BME280;67271;59.120;37.970;2023-04-01T18:37:25;99431.16;;;1.67;67.11
77867;BME280;67271;59.120;37.970;2023-04-01T18:39:56;99425.84;;;1.67;67.08
77867;BME280;67271;59.120;37.970;2023-04-01T18:45:26;99434.03;;;1.73;67.12
77867;BME280;67271;59.120;37.970;2023-04-01T18:50:47;99436.25;;;1.78;67.08
77867;BME280;67271;59.120;37.970;2023-04-01T18:53:44;99441.09;;;1.82;67.15
77867;BME280;67271;59.120;37.970;2023-04-01T18:56:36;99437.44;;;1.83;67.27
77867;BME280;67271;59.120;37.970;2023-04-01T19:04:39;99455.97;;;1.85;67.81
77867;BME280;67271;59.120;37.970;2023-04-01T19:09:50;99452.59;;;1.83;67.89
77867;BME280;67271;59.120;37.970;2023-04-01T19:12:39;99451.78;;;1.82;68.15
77867;BME280;67271;59.120;37.970;2023-04-01T19:15:38;99450.44;;;1.78;68.18
77867;BME280;67271;59.120;37.970;2023-04-01T19:20:51;99444.41;;;1.76;68.63
77867;BME280;67271;59.120;37.970;2023-04-01T19:33:36;99449.09;;;1.82;68.66
77867;BME280;67271;59.120;37.970;2023-04-01T19:35:42;99443.56;;;1.76;69.01
77867;BME280;67271;59.120;37.970;2023-04-01T19:43:47;99442.38;;;1.70;69.10
77867;BME280;67271;59.120;37.970;2023-04-01T19:46:33;99444.34;;;1.68;69.25
77867;BME280;67271;59.120;37.970;2023-04-01T19:49:33;99459.66;;;1.66;69.63
77867;BME280;67271;59.120;37.970;2023-04-01T20:04:45;99469.41;;;1.49;70.47
77867;BME280;67271;59.120;37.970;2023-04-01T20:10:30;99475.88;;;1.47;70.88
77867;BME280;67271;59.120;37.970;2023-04-01T20:15:59;99488.22;;;1.48;71.23
77867;BME280;67271;59.120;37.970;2023-04-01T20:18:36;99481.22;;;1.47;71.18
77867;BME280;67271;59.120;37.970;2023-04-01T20:21:34;99482.19;;;1.46;71.36
77867;BME280;67271;59.120;37.970;2023-04-01T20:26:42;99493.69;;;1.46;71.51
77867;BME280;67271;59.120;37.970;2023-04-01T20:29:29;99486.69;;;1.45;71.55
77867;BME280;67271;59.120;37.970;2023-04-01T20:32:06;99489.81;;;1.41;71.66
77867;BME280;67271;59.120;37.970;2023-04-01T20:37:35;99499.34;;;1.26;72.39
77867;BME280;67271;59.120;37.970;2023-04-01T20:50:57;99504.69;;;1.08;72.88
77867;BME280;67271;59.120;37.970;2023-04-01T20:59:52;99501.78;;;1.01;73.28
77867;BME280;67271;59.120;37.970;2023-04-01T21:10:38;99514.75;;;0.96;73.66
77867;BME280;67271;59.120;37.970;2023-04-01T21:21:32;99509.41;;;0.96;74.00
77867;BME280;67271;59.120;37.970;2023-04-01T21:29:51;99509.31;;;0.88;74.55
77867;BME280;67271;59.120;37.970;2023-04-01T21:33:41;99518.28;;;0.87;74.38
77867;BME280;67271;59.120;37.970;2023-04-01T21:35:44;99517.31;;;0.88;74.37
77867;BME280;67271;59.120;37.970;2023-04-01T21:39:13;99517.00;;;0.91;74.53
77867;BME280;67271;59.120;37.970;2023-04-01T21:55:56;99526.00;;;1.26;73.93
77867;BME280;67271;59.120;37.970;2023-04-01T22:07:19;99521.88;;;1.31;74.44
77867;BME280;67271;59.120;37.970;2023-04-01T22:10:11;99521.75;;;1.33;74.43
77867;BME280;67271;59.120;37.970;2023-04-01T22:13:10;99522.72;;;1.32;74.26
77867;BME280;67271;59.120;37.970;2023-04-01T22:18:54;99531.34;;;1.26;74.71
77867;BME280;67271;59.120;37.970;2023-04-01T22:21:32;99530.13;;;1.20;74.70
77867;BME280;67271;59.120;37.970;2023-04-01T22:24:18;99532.78;;;1.20;74.68
77867;BME280;67271;59.120;37.970;2023-04-01T22:27:32;99528.22;;;1.12;74.43
77867;BME280;67271;59.120;37.970;2023-04-01T22:30:03;99526.97;;;1.07;74.79
77867;BME280;67271;59.120;37.970;2023-04-01T22:32:49;99537.41;;;1.00;74.77
77867;BME280;67271;59.120;37.970;2023-04-01T22:35:46;99541.19;;;0.98;74.85
77867;BME280;67271;59.120;37.970;2023-04-01T22:40:51;99540.75;;;1.02;75.16
77867;BME280;67271;59.120;37.970;2023-04-01T22:49:12;99538.88;;;1.12;75.09
77867;BME280;67271;59.120;37.970;2023-04-01T22:51:57;99545.56;;;1.16;74.92
77867;BME280;67271;59.120;37.970;2023-04-01T22:54:34;99546.13;;;1.20;74.85
77867;BME280;67271;59.120;37.970;2023-04-01T22:57:17;99546.78;;;1.22;75.06
77867;BME280;67271;59.120;37.970;2023-04-01T23:02:38;99560.09;;;1.22;74.86
77867;BME280;67271;59.120;37.970;2023-04-01T23:05:10;99554.78;;;1.22;75.26
77867;BME280;67271;59.120;37.970;2023-04-01T23:10:41;99558.81;;;1.26;75.47
77867;BME280;67271;59.120;37.970;2023-04-01T23:13:20;99558.69;;;1.28;74.97
77867;BME280;67271;59.120;37.970;2023-04-01T23:15:47;99562.63;;;1.24;75.17
77867;BME280;67271;59.120;37.970;2023-04-01T23:29:23;99573.97;;;1.26;75.68
77867;BME280;67271;59.120;37.970;2023-04-01T23:32:02;99574.91;;;1.34;75.60
77867;BME280;67271;59.120;37.970;2023-04-01T23:34:33;99564.31;;;1.42;75.41
77867;BME280;67271;59.120;37.970;2023-04-01T23:37:13;99557.53;;;1.48;75.01
77867;BME280;67271;59.120;37.970;2023-04-01T23:39:43;99551.03;;;1.50;74.96
77867;BME280;67271;59.120;37.970;2023-04-01T23:42:14;99541.06;;;1.52;75.24
77867;BME280;67271;59.120;37.970;2023-04-01T23:44:42;99543.56;;;1.54;75.22
77867;BME280;67271;59.120;37.970;2023-04-01T23:47:15;99544.28;;;1.56;74.74
77867;BME280;67271;59.120;37.970;2023-04-01T23:49:45;99544.28;;;1.56;75.25